createdAt,value
2023-02-22T00:01:42.805Z,25.50
2023-02-22T00:04:15.985Z,26.63
2023-02-22T00:06:48.162Z,23.83
2023-02-22T00:09:21.432Z,26.43
2023-02-22T00:11:52.788Z,29.67
2023-02-22T00:14:27.357Z,25.17
2023-02-22T00:16:59.902Z,28.37
2023-02-22T00:19:31.522Z,25.77
2023-02-22T00:22:02.964Z,26.40
2023-02-22T00:24:36.032Z,25.00
2023-02-22T00:27:07.318Z,23.90
2023-02-22T00:29:38.986Z,20.00
2023-02-22T00:32:10.303Z,21.50
2023-02-22T00:34:43.545Z,22.47
2023-02-22T00:37:14.816Z,24.13
2023-02-22T00:39:48.230Z,20.20
2023-02-22T00:42:20.134Z,21.83
2023-02-22T00:44:51.460Z,24.50
2023-02-22T00:47:23.097Z,21.33
2023-02-22T00:49:54.417Z,20.27
2023-02-22T00:52:27.581Z,22.17
2023-02-22T00:54:59.932Z,21.67
2023-02-22T00:57:31.877Z,20.60
2023-02-22T01:00:11.894Z,21.03
2023-02-22T01:02:43.537Z,20.50
2023-02-22T01:05:16.263Z,22.83
2023-02-22T01:07:48.779Z,24.83
2023-02-22T01:10:21.976Z,22.03
2023-02-22T01:12:54.398Z,23.93
2023-02-22T01:15:30.721Z,20.43
2023-02-22T01:18:02.433Z,23.17
2023-02-22T01:20:34.231Z,19.90
2023-02-22T01:23:07.691Z,19.70
2023-02-22T01:25:39.004Z,20.77
2023-02-22T01:28:10.300Z,19.83
2023-02-22T01:30:41.855Z,21.83
2023-02-22T01:33:13.426Z,22.03
2023-02-22T01:35:46.169Z,22.03
2023-02-22T01:38:17.514Z,21.97
2023-02-22T01:40:50.919Z,23.27
2023-02-22T01:43:31.388Z,22.77
2023-02-22T01:46:04.094Z,26.40
2023-02-22T01:48:41.976Z,25.53
2023-02-22T01:51:18.030Z,26.73
2023-02-22T01:56:26.610Z,23.73
2023-02-22T01:59:02.453Z,24.27
2023-02-22T02:01:36.300Z,24.88
2023-02-22T02:04:11.943Z,25.47
2023-02-22T02:06:47.964Z,28.65
2023-02-22T02:09:40.825Z,30.30
2023-02-22T02:12:15.834Z,27.87
2023-02-22T02:14:47.132Z,30.90
2023-02-22T02:17:22.227Z,28.17
2023-02-22T02:20:16.055Z,27.07
2023-02-22T02:23:11.750Z,31.43
2023-02-22T02:26:12.275Z,29.93
2023-02-22T02:29:01.615Z,30.47
2023-02-22T02:32:09.177Z,29.67
2023-02-22T02:37:52.988Z,29.33
2023-02-22T02:40:45.229Z,19.00
2023-02-22T02:43:29.324Z,24.87
2023-02-22T02:46:07.458Z,25.33
2023-02-22T02:48:45.482Z,28.70
2023-02-22T02:51:19.006Z,28.27
2023-02-22T02:53:52.290Z,27.70
2023-02-22T02:56:24.468Z,26.83
2023-02-22T02:58:55.753Z,28.70
2023-02-22T03:01:57.332Z,26.30
2023-02-22T03:05:01.268Z,29.13
2023-02-22T03:07:56.735Z,26.00
2023-02-22T03:11:03.987Z,26.13
2023-02-22T03:13:58.683Z,27.20
2023-02-22T03:16:43.477Z,27.80
2023-02-22T03:19:37.088Z,26.40
2023-02-22T03:22:18.736Z,27.10
2023-02-22T03:25:08.925Z,25.43
2023-02-22T03:27:54.229Z,26.77
2023-02-22T03:30:47.001Z,31.27
2023-02-22T03:33:28.705Z,27.63
2023-02-22T03:36:05.304Z,25.53
2023-02-22T03:38:38.405Z,26.50
2023-02-22T03:41:11.795Z,27.47
2023-02-22T03:43:49.440Z,25.93
2023-02-22T03:46:22.157Z,29.33
2023-02-22T03:49:14.239Z,30.90
2023-02-22T03:51:46.288Z,28.47
2023-02-22T03:54:17.797Z,29.83
2023-02-22T03:56:58.876Z,27.27
2023-02-22T03:59:30.655Z,30.73
2023-02-22T04:02:02.117Z,28.83
2023-02-22T04:04:33.467Z,24.83
2023-02-22T04:07:04.773Z,31.43
2023-02-22T04:09:36.058Z,21.33
2023-02-22T04:12:07.598Z,23.57
2023-02-22T04:14:38.898Z,28.10
2023-02-22T04:17:10.281Z,25.27
2023-02-22T04:19:41.640Z,29.40
2023-02-22T04:22:12.930Z,29.83
2023-02-22T04:24:45.250Z,31.73
2023-02-22T04:27:16.542Z,34.53
2023-02-22T04:29:47.855Z,36.80
2023-02-22T04:32:19.201Z,27.53
2023-02-22T04:34:50.494Z,25.40
2023-02-22T04:37:21.828Z,28.53
2023-02-22T04:39:53.199Z,35.37
2023-02-22T04:42:24.496Z,25.60
2023-02-22T04:44:55.769Z,27.03
2023-02-22T04:47:27.180Z,30.43
2023-02-22T04:50:00.316Z,24.33
2023-02-22T04:52:31.737Z,25.53
2023-02-22T04:55:04.709Z,29.50
2023-02-22T04:57:36.066Z,32.20
2023-02-22T05:00:10.152Z,26.33
2023-02-22T05:02:41.514Z,26.90
2023-02-22T05:05:15.447Z,24.37
2023-02-22T05:07:47.850Z,25.23
2023-02-22T05:10:19.376Z,26.50
2023-02-22T05:12:51.572Z,29.07
2023-02-22T05:15:25.152Z,24.50
2023-02-22T05:17:56.431Z,27.80
2023-02-22T05:20:33.611Z,28.27
2023-02-22T05:23:05.577Z,28.70
2023-02-22T05:25:36.988Z,28.53
2023-02-22T05:28:12.702Z,27.60
2023-02-22T05:30:44.424Z,28.63
2023-02-22T05:33:15.863Z,29.60
2023-02-22T05:35:47.166Z,29.70
2023-02-22T05:38:18.492Z,28.37
2023-02-22T05:40:49.935Z,24.47
2023-02-22T05:43:21.249Z,25.07
2023-02-22T05:45:52.592Z,23.67
2023-02-22T05:48:23.891Z,27.83
2023-02-22T05:50:55.988Z,26.13
2023-02-22T05:53:27.668Z,25.50
2023-02-22T05:55:59.253Z,27.20
2023-02-22T05:58:30.528Z,25.10
2023-02-22T06:01:03.312Z,25.77
2023-02-22T06:03:34.807Z,26.47
2023-02-22T06:06:06.304Z,25.50
2023-02-22T06:08:37.577Z,25.93
2023-02-22T06:11:11.777Z,27.13
2023-02-22T06:13:49.338Z,26.10
2023-02-22T06:16:21.444Z,26.90
2023-02-22T06:18:52.892Z,24.77
2023-02-22T06:21:24.219Z,25.77
2023-02-22T06:23:55.637Z,26.00
2023-02-22T06:26:26.974Z,26.33
2023-02-22T06:28:58.246Z,23.87
2023-02-22T06:31:29.662Z,24.63
2023-02-22T06:34:01.128Z,24.50
2023-02-22T06:36:32.440Z,24.07
2023-02-22T06:39:03.723Z,23.87
2023-02-22T06:41:37.808Z,23.30
2023-02-22T06:44:10.674Z,24.13
2023-02-22T06:46:48.014Z,24.77
2023-02-22T06:49:20.161Z,23.50
2023-02-22T06:51:51.460Z,23.40
2023-02-22T06:54:23.315Z,23.13
2023-02-22T06:56:54.588Z,22.80
2023-02-22T06:59:26.114Z,24.33
2023-02-22T07:01:57.408Z,23.30
2023-02-22T07:04:28.658Z,22.77
2023-02-22T07:07:00.027Z,20.40
2023-02-22T07:09:31.496Z,23.53
2023-02-22T07:12:02.885Z,21.20
2023-02-22T07:14:34.151Z,20.50
2023-02-22T07:17:05.481Z,22.90
2023-02-22T07:19:36.771Z,22.33
2023-02-22T07:22:08.023Z,19.77
2023-02-22T07:24:41.263Z,19.80
2023-02-22T07:27:12.518Z,22.70
2023-02-22T07:29:44.168Z,21.10
2023-02-22T07:32:15.463Z,18.70
2023-02-22T07:34:46.792Z,20.17
2023-02-22T07:37:18.048Z,21.03
2023-02-22T07:39:49.355Z,18.87
2023-02-22T07:42:20.624Z,19.00
2023-02-22T07:44:51.902Z,20.00
2023-02-22T07:47:23.189Z,18.63
2023-02-22T07:49:54.471Z,19.27
2023-02-22T07:52:25.737Z,17.90
2023-02-22T07:54:57.131Z,18.07
2023-02-22T07:57:28.389Z,17.97
2023-02-22T07:59:59.659Z,17.87
2023-02-22T08:02:30.940Z,20.20
2023-02-22T08:05:02.269Z,18.77
2023-02-22T08:07:33.622Z,19.13
2023-02-22T08:10:07.848Z,17.50
2023-02-22T08:12:39.213Z,15.83
2023-02-22T08:15:17.734Z,15.60
2023-02-22T08:17:49.023Z,16.70
2023-02-22T08:20:21.264Z,16.33
2023-02-22T08:22:53.027Z,14.80
2023-02-22T08:25:27.784Z,14.57
2023-02-22T08:28:05.282Z,14.77
2023-02-22T08:30:40.411Z,14.63
2023-02-22T08:33:15.112Z,14.45
2023-02-22T08:35:49.497Z,15.10
2023-02-22T08:38:27.209Z,15.10
2023-02-22T08:40:58.521Z,14.00
2023-02-22T08:43:29.803Z,13.47
2023-02-22T08:46:01.131Z,14.43
2023-02-22T08:48:32.418Z,14.23
2023-02-22T08:51:03.947Z,14.43
2023-02-22T08:53:35.230Z,13.77
2023-02-22T08:56:06.733Z,13.23
2023-02-22T08:58:38.066Z,12.73
2023-02-22T09:01:09.356Z,12.53
2023-02-22T09:03:40.762Z,12.90
2023-02-22T09:06:12.308Z,12.13
2023-02-22T09:08:43.603Z,11.83
2023-02-22T09:11:15.133Z,11.70
2023-02-22T09:13:46.593Z,12.57
2023-02-22T09:16:18.000Z,12.80
2023-02-22T09:18:49.284Z,12.67
2023-02-22T09:21:20.594Z,13.43
2023-02-22T09:23:54.588Z,12.77
2023-02-22T09:26:27.580Z,13.90
2023-02-22T09:28:58.840Z,12.87
2023-02-22T09:31:30.148Z,12.63
2023-02-22T09:34:04.131Z,13.53
2023-02-22T09:36:35.665Z,12.27
2023-02-22T09:39:07.633Z,12.37
2023-02-22T09:41:53.724Z,13.63
2023-02-22T09:44:36.107Z,13.32
2023-02-22T09:47:15.289Z,10.90
2023-02-22T09:49:58.589Z,12.70
2023-02-22T09:52:39.350Z,13.67
2023-02-22T09:55:34.184Z,10.70
2023-02-22T09:58:18.551Z,12.57
2023-02-22T10:00:59.506Z,12.27
2023-02-22T10:03:35.935Z,12.63
2023-02-22T10:06:12.384Z,12.47
2023-02-22T10:08:45.157Z,11.87
2023-02-22T10:11:23.975Z,13.17
2023-02-22T10:14:28.286Z,12.20
2023-02-22T10:17:24.565Z,12.30
2023-02-22T10:20:30.906Z,11.23
2023-02-22T10:23:05.069Z,12.90
2023-02-22T10:25:38.251Z,12.07
2023-02-22T10:28:19.664Z,11.47
2023-02-22T10:30:59.041Z,12.73
2023-02-22T10:33:37.078Z,12.63
2023-02-22T10:36:39.040Z,11.93
2023-02-22T10:39:28.053Z,12.20
2023-02-22T10:42:06.006Z,12.47
2023-02-22T10:44:39.179Z,11.20
2023-02-22T10:47:16.590Z,11.27
2023-02-22T10:49:55.517Z,12.13
2023-02-22T10:52:30.145Z,11.17
2023-02-22T10:55:15.298Z,11.47
2023-02-22T10:57:51.058Z,11.43
2023-02-22T11:00:29.471Z,11.27
2023-02-22T11:03:19.364Z,12.07
2023-02-22T11:05:50.731Z,11.73
2023-02-22T11:08:22.095Z,11.17
2023-02-22T11:11:01.544Z,11.37
2023-02-22T11:13:42.019Z,10.20
2023-02-22T11:16:36.237Z,11.13
2023-02-22T11:19:24.279Z,9.37
2023-02-22T11:22:23.383Z,10.53
2023-02-22T11:25:01.677Z,10.27
2023-02-22T11:27:52.248Z,10.37
2023-02-22T11:30:35.072Z,11.00
2023-02-22T11:33:23.889Z,9.83
2023-02-22T11:36:08.654Z,9.37
2023-02-22T11:38:54.581Z,10.03
2023-02-22T11:41:30.922Z,9.35
2023-02-22T11:44:14.828Z,9.30
2023-02-22T11:46:46.258Z,9.13
2023-02-22T11:49:18.049Z,8.00
2023-02-22T11:52:27.070Z,8.60
2023-02-22T11:55:09.930Z,8.70
2023-02-22T11:58:06.923Z,8.10
2023-02-22T12:00:56.451Z,7.88
2023-02-22T12:03:53.917Z,7.73
2023-02-22T12:06:32.341Z,8.10
2023-02-22T12:09:13.980Z,8.80
2023-02-22T12:11:51.590Z,8.30
2023-02-22T12:14:41.874Z,9.03
2023-02-22T12:17:39.005Z,7.47
2023-02-22T12:20:22.105Z,7.53
2023-02-22T12:23:06.750Z,7.33
2023-02-22T12:25:43.998Z,6.33
2023-02-22T12:28:24.992Z,5.83
2023-02-22T12:31:11.402Z,7.07
2023-02-22T12:33:51.656Z,5.95
2023-02-22T12:36:32.306Z,5.80
2023-02-22T12:39:25.205Z,6.30
2023-02-22T12:41:57.995Z,6.53
2023-02-22T12:44:34.458Z,6.17
2023-02-22T12:47:08.163Z,6.10
2023-02-22T12:49:54.428Z,5.00
2023-02-22T12:52:28.574Z,6.22
2023-02-22T12:55:16.546Z,4.63
2023-02-22T12:58:25.113Z,4.83
2023-02-22T13:01:14.852Z,5.47
2023-02-22T13:03:46.779Z,5.30
2023-02-22T13:06:44.980Z,4.50
2023-02-22T13:09:43.339Z,3.77
2023-02-22T13:12:39.078Z,4.27
2023-02-22T13:15:19.502Z,4.33
2023-02-22T13:18:03.720Z,4.20
2023-02-22T13:20:41.908Z,4.23
2023-02-22T13:23:38.885Z,3.93
2023-02-22T13:26:31.178Z,4.43
2023-02-22T13:29:10.099Z,3.60
2023-02-22T13:32:20.646Z,4.33
2023-02-22T13:35:00.981Z,3.60
2023-02-22T13:37:46.979Z,4.67
2023-02-22T13:40:48.761Z,4.15
2023-02-22T13:43:38.200Z,4.20
2023-02-22T13:46:46.087Z,3.80
2023-02-22T13:49:40.400Z,3.93
2023-02-22T13:52:17.194Z,3.80
2023-02-22T13:54:54.772Z,3.87
2023-02-22T13:57:36.583Z,5.00
2023-02-22T14:00:20.772Z,3.80
2023-02-22T14:03:31.311Z,4.27
2023-02-22T14:06:04.536Z,3.97
2023-02-22T14:08:35.823Z,3.70
2023-02-22T14:11:33.042Z,3.43
2023-02-22T14:14:07.187Z,3.80
2023-02-22T14:16:38.630Z,4.00
2023-02-22T14:19:13.188Z,3.73
2023-02-22T14:22:01.852Z,4.27
2023-02-22T14:24:45.748Z,4.87
2023-02-22T14:27:17.774Z,4.23
2023-02-22T14:29:56.138Z,3.80
2023-02-22T14:32:33.006Z,3.83
2023-02-22T14:35:26.518Z,4.67
2023-02-22T14:38:02.161Z,4.40
2023-02-22T14:40:37.594Z,4.30
2023-02-22T14:43:19.795Z,4.43
2023-02-22T14:46:00.298Z,3.90
2023-02-22T14:48:42.594Z,4.20
2023-02-22T14:51:26.532Z,4.13
2023-02-22T14:54:08.687Z,3.93
2023-02-22T14:56:55.579Z,3.90
2023-02-22T14:59:28.292Z,4.83
2023-02-22T15:02:12.039Z,8.20
2023-02-22T15:04:51.584Z,6.13
2023-02-22T15:07:29.412Z,5.20
2023-02-22T15:10:17.772Z,6.47
2023-02-22T15:12:52.785Z,4.33
2023-02-22T15:15:24.120Z,5.07
2023-02-22T15:17:57.146Z,4.07
2023-02-22T15:20:29.205Z,3.53
2023-02-22T15:23:00.893Z,4.13
2023-02-22T15:25:32.392Z,4.17
2023-02-22T15:28:05.179Z,4.47
2023-02-22T15:30:37.647Z,4.17
2023-02-22T15:33:17.915Z,4.63
2023-02-22T15:35:55.204Z,4.00
2023-02-22T15:38:29.344Z,5.07
2023-02-22T15:41:05.753Z,4.47
2023-02-22T15:43:38.440Z,5.10
2023-02-22T15:46:09.882Z,4.43
2023-02-22T15:48:41.505Z,5.33
2023-02-22T15:51:14.366Z,5.27
2023-02-22T15:53:48.322Z,5.37
2023-02-22T15:56:29.933Z,5.80
2023-02-22T15:59:15.885Z,6.17
2023-02-22T16:01:50.457Z,7.30
2023-02-22T16:04:26.761Z,7.07
2023-02-22T16:07:07.093Z,6.73
2023-02-22T16:09:38.400Z,7.03
2023-02-22T16:12:24.039Z,8.50
2023-02-22T16:14:56.228Z,7.87
2023-02-22T16:17:39.829Z,7.57
2023-02-22T16:20:20.414Z,8.40
2023-02-22T16:22:51.809Z,7.93
2023-02-22T16:25:31.077Z,8.30
2023-02-22T16:28:35.375Z,8.73
2023-02-22T16:31:09.073Z,8.77
2023-02-22T16:33:42.714Z,8.73
2023-02-22T16:36:14.863Z,8.57
2023-02-22T16:38:48.401Z,7.77
2023-02-22T16:41:19.898Z,9.20
2023-02-22T16:43:51.319Z,9.73
2023-02-22T16:46:22.817Z,8.77
2023-02-22T16:48:54.280Z,9.70
2023-02-22T16:51:28.139Z,9.33
2023-02-22T16:53:59.434Z,10.00
2023-02-22T16:56:32.261Z,9.90
2023-02-22T16:59:10.849Z,9.13
2023-02-22T17:01:42.973Z,10.20
2023-02-22T17:04:25.781Z,9.80
2023-02-22T17:06:58.986Z,9.53
2023-02-22T17:09:30.419Z,9.87
2023-02-22T17:12:02.338Z,10.47
2023-02-22T17:14:35.342Z,9.93
2023-02-22T17:17:07.705Z,9.83
2023-02-22T17:19:39.073Z,10.07
2023-02-22T17:22:21.266Z,10.97
2023-02-22T17:24:52.608Z,9.57
2023-02-22T17:27:23.910Z,11.33
2023-02-22T17:29:55.209Z,11.43
2023-02-22T17:32:26.756Z,11.33
2023-02-22T17:35:04.039Z,11.93
2023-02-22T17:37:35.527Z,11.47
2023-02-22T17:40:07.272Z,10.40
2023-02-22T17:42:38.617Z,12.10
2023-02-22T17:45:13.783Z,10.83
2023-02-22T17:47:45.187Z,11.57
2023-02-22T17:50:17.307Z,11.80
2023-02-22T17:52:51.490Z,12.23
2023-02-22T17:55:22.834Z,12.03
2023-02-22T17:57:59.056Z,12.33
2023-02-22T18:03:08.766Z,10.57
2023-02-22T18:05:46.215Z,11.57
2023-02-22T18:08:17.659Z,12.20
2023-02-22T18:10:52.606Z,11.73
2023-02-22T18:13:26.962Z,11.43
2023-02-22T18:15:59.855Z,12.90
2023-02-22T18:18:32.341Z,10.70
2023-02-22T18:21:06.111Z,11.20
2023-02-22T18:23:37.438Z,11.80
2023-02-22T18:26:14.912Z,11.00
2023-02-22T18:28:48.558Z,11.27
2023-02-22T18:31:22.159Z,10.67
2023-02-22T18:33:53.534Z,10.17
2023-02-22T18:36:25.086Z,9.17
2023-02-22T18:38:56.432Z,10.20
2023-02-22T18:41:28.372Z,9.63
2023-02-22T18:44:00.342Z,9.40
2023-02-22T18:46:31.938Z,10.83
2023-02-22T18:49:04.174Z,10.60
2023-02-22T18:51:35.734Z,10.47
2023-02-22T18:54:07.050Z,9.93
2023-02-22T18:56:40.161Z,9.77
2023-02-22T18:59:12.492Z,10.80
2023-02-22T19:01:48.785Z,9.97
2023-02-22T19:04:21.580Z,9.80
2023-02-22T19:06:57.464Z,10.47
2023-02-22T19:09:30.208Z,11.02
2023-02-22T19:12:02.137Z,9.80
2023-02-22T19:14:33.461Z,9.67
2023-02-22T19:17:07.244Z,9.07
2023-02-22T19:19:38.575Z,9.57
2023-02-22T19:22:14.944Z,10.63
2023-02-22T19:24:46.763Z,9.40
2023-02-22T19:27:18.087Z,9.77
2023-02-22T19:29:50.081Z,10.07
2023-02-22T19:32:22.978Z,10.97
2023-02-22T19:35:01.897Z,10.20
2023-02-22T19:37:33.977Z,10.63
2023-02-22T19:40:08.781Z,11.10
2023-02-22T19:42:40.087Z,10.27
2023-02-22T19:45:11.389Z,9.03
2023-02-22T19:47:42.676Z,10.83
2023-02-22T19:50:15.405Z,9.63
2023-02-22T19:52:47.787Z,10.33
2023-02-22T19:55:19.183Z,10.53
2023-02-22T19:57:50.994Z,11.47
2023-02-22T20:00:25.192Z,10.37
2023-02-22T20:03:05.514Z,10.53
2023-02-22T20:05:41.873Z,9.90
2023-02-22T20:08:13.239Z,10.10
2023-02-22T20:10:44.604Z,10.83
2023-02-22T20:13:16.984Z,9.30
2023-02-22T20:15:50.607Z,10.00
2023-02-22T20:18:22.883Z,10.03
2023-02-22T20:20:54.313Z,9.33
2023-02-22T20:23:25.747Z,10.57
2023-02-22T20:25:57.078Z,11.00
2023-02-22T20:28:28.589Z,10.87
2023-02-22T20:30:59.966Z,11.27
2023-02-22T20:33:31.373Z,10.47
2023-02-22T20:36:06.436Z,10.57
2023-02-22T20:38:38.669Z,9.87
2023-02-22T20:41:24.463Z,10.77
2023-02-22T20:43:57.040Z,10.55
2023-02-22T20:46:33.556Z,10.50
2023-02-22T20:49:11.053Z,10.20
2023-02-22T20:51:43.208Z,10.50
2023-02-22T20:54:15.292Z,9.97
2023-02-22T20:56:47.652Z,10.73
2023-02-22T20:59:19.810Z,11.00
2023-02-22T21:01:52.898Z,11.30
2023-02-22T21:04:24.278Z,10.60
2023-02-22T21:06:55.586Z,10.33
2023-02-22T21:09:27.018Z,11.00
2023-02-22T21:11:58.320Z,11.07
2023-02-22T21:14:32.327Z,10.80
2023-02-22T21:17:04.590Z,10.97
2023-02-22T21:19:36.605Z,10.47
2023-02-22T21:22:08.477Z,10.93
2023-02-22T21:24:39.880Z,10.83
2023-02-22T21:27:12.150Z,11.90
2023-02-22T21:29:43.468Z,10.17
2023-02-22T21:32:14.980Z,11.63
2023-02-22T21:34:46.436Z,11.17
2023-02-22T21:37:18.383Z,10.30
2023-02-22T21:39:49.665Z,11.10
2023-02-22T21:42:20.980Z,11.03
2023-02-22T21:44:56.013Z,10.37
2023-02-22T21:47:27.854Z,11.37
2023-02-22T21:50:01.619Z,11.40
2023-02-22T21:52:32.881Z,10.63
2023-02-22T21:55:06.147Z,12.17
2023-02-22T21:57:37.842Z,11.63
2023-02-22T22:00:28.886Z,12.60
2023-02-22T22:03:07.781Z,11.43
2023-02-22T22:05:40.164Z,10.97
2023-02-22T22:08:19.458Z,12.50
2023-02-22T22:10:55.238Z,11.53
2023-02-22T22:13:27.975Z,12.05
2023-02-22T22:16:04.324Z,11.27
2023-02-22T22:18:37.428Z,11.27
2023-02-22T22:21:11.435Z,12.80
2023-02-22T22:23:45.390Z,10.57
2023-02-22T22:26:20.937Z,11.57
2023-02-22T22:28:54.779Z,10.38
2023-02-22T22:31:28.132Z,11.73
2023-02-22T22:33:59.512Z,13.37
2023-02-22T22:36:30.843Z,11.13
2023-02-22T22:39:04.570Z,11.37
2023-02-22T22:41:36.444Z,12.37
2023-02-22T22:44:09.634Z,12.80
2023-02-22T22:46:41.762Z,11.93
2023-02-22T22:49:13.457Z,12.87
2023-02-22T22:51:47.280Z,12.93
2023-02-22T22:54:18.583Z,12.60
2023-02-22T22:56:49.880Z,12.50
2023-02-22T22:59:21.580Z,12.93
2023-02-22T23:01:54.643Z,12.77
2023-02-22T23:04:25.942Z,12.97
2023-02-22T23:06:57.231Z,11.57
2023-02-22T23:09:31.464Z,12.50
2023-02-22T23:12:08.935Z,13.03
2023-02-22T23:14:43.860Z,12.30
2023-02-22T23:17:30.655Z,13.13
2023-02-22T23:22:33.231Z,11.00
2023-02-22T23:25:06.907Z,11.00
2023-02-22T23:27:38.304Z,11.40
2023-02-22T23:30:14.771Z,12.63
2023-02-22T23:32:48.958Z,12.00
2023-02-22T23:35:20.291Z,12.73
2023-02-22T23:37:53.598Z,12.17
2023-02-22T23:40:25.869Z,12.87
2023-02-22T23:42:57.502Z,9.53
2023-02-22T23:45:28.797Z,11.80
2023-02-22T23:48:01.558Z,12.80
2023-02-22T23:50:36.197Z,12.17
2023-02-22T23:53:15.010Z,13.07
2023-02-22T23:55:46.356Z,12.77
2023-02-22T23:58:17.740Z,12.87
